createdAt,value
2022-12-26T00:01:16.647Z,11.70
2022-12-26T00:03:43.792Z,10.15
2022-12-26T00:06:16.343Z,9.05
2022-12-26T00:08:45.036Z,12.88
2022-12-26T00:11:12.818Z,10.75
2022-12-26T00:13:43.278Z,8.27
2022-12-26T00:16:18.560Z,10.32
2022-12-26T00:18:46.339Z,13.45
2022-12-26T00:21:15.008Z,10.25
2022-12-26T00:23:42.255Z,10.40
2022-12-26T00:26:14.807Z,11.60
2022-12-26T00:28:42.670Z,12.20
2022-12-26T00:31:33.379Z,13.82
2022-12-26T00:34:01.453Z,7.88
2022-12-26T00:36:31.009Z,10.65
2022-12-26T00:39:00.424Z,9.55
2022-12-26T00:41:27.662Z,7.88
2022-12-26T00:43:58.089Z,10.07
2022-12-26T00:46:26.580Z,7.50
2022-12-26T00:48:53.847Z,8.45
2022-12-26T00:51:20.947Z,8.00
2022-12-26T00:53:47.809Z,7.50
2022-12-26T00:56:15.742Z,6.55
2022-12-26T00:58:44.121Z,9.60
2022-12-26T01:01:20.584Z,11.38
2022-12-26T01:03:49.208Z,7.90
2022-12-26T01:06:17.010Z,10.50
2022-12-26T01:08:44.628Z,7.68
2022-12-26T01:11:13.533Z,10.23
2022-12-26T01:13:40.972Z,7.18
2022-12-26T01:16:08.345Z,9.73
2022-12-26T01:18:36.519Z,8.48
2022-12-26T01:21:07.483Z,10.50
2022-12-26T01:23:34.340Z,7.30
2022-12-26T01:26:15.737Z,9.35
2022-12-26T01:28:51.696Z,10.07
2022-12-26T01:31:20.124Z,9.45
2022-12-26T01:33:47.962Z,10.57
2022-12-26T01:36:16.225Z,8.88
2022-12-26T01:38:43.122Z,10.25
2022-12-26T01:41:20.657Z,10.55
2022-12-26T01:43:57.592Z,11.63
2022-12-26T01:46:30.571Z,14.85
2022-12-26T01:49:01.014Z,16.67
2022-12-26T01:51:34.016Z,20.48
2022-12-26T01:54:37.968Z,15.05
2022-12-26T01:56:56.443Z,12.45
2022-12-26T01:59:28.756Z,11.50
2022-12-26T02:01:56.228Z,12.07
2022-12-26T02:04:52.777Z,13.45
2022-12-26T02:07:28.979Z,10.85
2022-12-26T02:09:56.029Z,11.18
2022-12-26T02:12:38.859Z,10.43
2022-12-26T02:17:38.702Z,8.60
2022-12-26T02:20:22.437Z,11.00
2022-12-26T02:23:27.634Z,7.57
2022-12-26T02:25:57.792Z,8.65
2022-12-26T02:28:43.316Z,10.35
2022-12-26T02:31:32.223Z,11.90
2022-12-26T02:34:14.969Z,9.18
2022-12-26T02:36:56.921Z,9.77
2022-12-26T02:39:51.730Z,9.18
2022-12-26T02:42:21.721Z,6.90
2022-12-26T02:45:22.697Z,8.50
2022-12-26T02:48:13.800Z,11.18
2022-12-26T02:51:13.069Z,9.27
2022-12-26T02:54:33.077Z,6.93
2022-12-26T02:57:30.498Z,7.78
2022-12-26T03:00:42.421Z,7.18
2022-12-26T03:03:37.446Z,5.80
2022-12-26T03:06:41.420Z,6.45
2022-12-26T03:09:29.037Z,8.63
2022-12-26T03:12:45.287Z,8.75
2022-12-26T03:15:16.721Z,6.10
2022-12-26T03:17:49.537Z,9.18
2022-12-26T03:20:37.197Z,7.53
2022-12-26T03:23:10.003Z,6.80
2022-12-26T03:26:04.299Z,11.63
2022-12-26T03:28:31.585Z,9.70
2022-12-26T03:31:02.024Z,12.35
2022-12-26T03:33:51.533Z,8.95
2022-12-26T03:36:30.161Z,8.85
2022-12-26T03:39:21.425Z,10.23
2022-12-26T03:42:27.682Z,8.85
2022-12-26T03:45:27.640Z,9.00
2022-12-26T03:48:24.975Z,7.50
2022-12-26T03:51:22.160Z,7.82
2022-12-26T03:54:26.711Z,10.40
2022-12-26T03:57:17.105Z,9.25
2022-12-26T04:00:16.608Z,4.95
2022-12-26T04:03:05.877Z,6.50
2022-12-26T04:05:56.025Z,10.27
2022-12-26T04:08:59.595Z,10.65
2022-12-26T04:11:45.801Z,7.13
2022-12-26T04:14:54.084Z,10.52
2022-12-26T04:20:43.682Z,10.63
2022-12-26T04:23:42.000Z,14.07
2022-12-26T04:26:35.825Z,7.47
2022-12-26T04:29:22.903Z,5.28
2022-12-26T04:32:26.923Z,6.53
2022-12-26T04:35:38.741Z,8.05
2022-12-26T04:38:26.538Z,9.90
2022-12-26T04:41:17.095Z,7.55
2022-12-26T04:44:04.390Z,7.35
2022-12-26T04:46:33.307Z,4.95
2022-12-26T04:49:22.325Z,7.25
2022-12-26T04:51:49.792Z,6.80
2022-12-26T04:54:17.225Z,5.15
2022-12-26T04:56:44.190Z,4.30
2022-12-26T04:59:13.414Z,5.70
2022-12-26T05:01:58.844Z,6.82
2022-12-26T05:04:44.805Z,8.00
2022-12-26T05:07:39.361Z,10.73
2022-12-26T05:10:08.677Z,7.38
2022-12-26T05:12:35.537Z,8.10
2022-12-26T05:15:02.383Z,6.20
2022-12-26T05:17:47.926Z,10.88
2022-12-26T05:20:30.100Z,10.13
2022-12-26T05:23:18.040Z,7.53
2022-12-26T05:26:06.970Z,8.00
2022-12-26T05:28:43.203Z,11.75
2022-12-26T05:31:12.995Z,5.75
2022-12-26T05:33:58.784Z,5.90
2022-12-26T05:36:30.471Z,9.15
2022-12-26T05:38:57.447Z,7.25
2022-12-26T05:41:29.604Z,7.80
2022-12-26T05:43:56.493Z,7.35
2022-12-26T05:46:23.553Z,6.40
2022-12-26T05:48:50.689Z,5.80
2022-12-26T05:51:17.475Z,11.25
2022-12-26T05:53:44.315Z,8.48
2022-12-26T05:56:16.206Z,7.35
2022-12-26T05:58:43.535Z,7.03
2022-12-26T06:01:10.299Z,6.57
2022-12-26T06:03:38.985Z,6.07
2022-12-26T06:06:06.702Z,7.28
2022-12-26T06:08:33.762Z,6.90
2022-12-26T06:11:04.088Z,3.95
2022-12-26T06:13:31.488Z,6.57
2022-12-26T06:15:58.779Z,9.13
2022-12-26T06:18:26.233Z,5.35
2022-12-26T06:20:53.203Z,8.70
2022-12-26T06:23:19.988Z,6.68
2022-12-26T06:25:53.804Z,8.38
2022-12-26T06:28:20.668Z,8.30
2022-12-26T06:30:47.424Z,6.10
2022-12-26T06:33:14.271Z,7.68
2022-12-26T06:35:41.000Z,6.13
2022-12-26T06:38:08.052Z,7.93
2022-12-26T06:40:34.804Z,7.65
2022-12-26T06:43:01.683Z,6.30
2022-12-26T06:45:31.819Z,8.02
2022-12-26T06:47:59.852Z,10.57
2022-12-26T06:50:27.467Z,4.72
2022-12-26T06:52:54.446Z,6.57
2022-12-26T06:55:21.292Z,4.28
2022-12-26T06:57:48.068Z,5.57
2022-12-26T07:00:15.577Z,8.75
2022-12-26T07:02:42.502Z,7.05
2022-12-26T07:05:09.612Z,7.22
2022-12-26T07:07:37.608Z,6.07
2022-12-26T07:10:04.646Z,8.20
2022-12-26T07:12:35.048Z,9.70
2022-12-26T07:15:02.306Z,7.57
2022-12-26T07:17:36.163Z,16.20
2022-12-26T07:20:08.775Z,13.43
2022-12-26T07:22:35.673Z,18.33
2022-12-26T07:25:02.523Z,12.80
2022-12-26T07:27:29.381Z,11.98
2022-12-26T07:29:56.170Z,15.43
2022-12-26T07:32:23.073Z,16.38
2022-12-26T07:34:49.834Z,21.83
2022-12-26T07:37:16.732Z,16.02
2022-12-26T07:39:43.642Z,19.80
2022-12-26T07:42:10.476Z,22.25
2022-12-26T07:44:39.346Z,16.27
2022-12-26T07:47:06.409Z,18.42
2022-12-26T07:49:35.232Z,21.08
2022-12-26T07:52:05.397Z,15.38
2022-12-26T07:54:32.446Z,10.90
2022-12-26T07:57:21.966Z,10.95
2022-12-26T07:59:46.154Z,8.45
2022-12-26T08:02:17.210Z,7.47
2022-12-26T08:04:44.239Z,7.60
2022-12-26T08:07:11.080Z,7.50
2022-12-26T08:09:42.875Z,9.50
2022-12-26T08:12:09.822Z,12.65
2022-12-26T08:14:40.528Z,13.23
2022-12-26T08:19:37.800Z,7.18
2022-12-26T08:22:04.945Z,7.80
2022-12-26T08:24:31.991Z,8.25
2022-12-26T08:26:58.786Z,10.88
2022-12-26T08:29:25.746Z,10.80
2022-12-26T08:31:52.763Z,10.88
2022-12-26T08:34:19.596Z,9.48
2022-12-26T08:36:46.758Z,9.43
2022-12-26T08:39:13.539Z,7.90
2022-12-26T08:41:41.831Z,13.65
2022-12-26T08:44:27.519Z,48.38
2022-12-26T08:47:07.049Z,186.93
2022-12-26T08:49:34.028Z,108.40
2022-12-26T08:52:00.967Z,47.95
2022-12-26T08:54:27.928Z,28.85
2022-12-26T08:56:54.954Z,14.45
2022-12-26T08:59:22.113Z,15.55
2022-12-26T09:01:49.073Z,16.85
2022-12-26T09:04:16.235Z,11.50
2022-12-26T09:06:43.227Z,15.48
2022-12-26T09:09:12.763Z,24.45
2022-12-26T09:11:40.953Z,12.75
2022-12-26T09:14:09.065Z,64.68
2022-12-26T09:16:51.963Z,46.25
2022-12-26T09:19:21.048Z,54.58
2022-12-26T09:21:49.408Z,18.77
2022-12-26T09:24:18.391Z,15.88
2022-12-26T09:26:45.939Z,59.45
2022-12-26T09:29:13.899Z,19.25
2022-12-26T09:31:41.005Z,10.07
2022-12-26T09:34:08.529Z,7.93
2022-12-26T09:36:40.343Z,7.20
2022-12-26T09:39:07.879Z,6.60
2022-12-26T09:41:47.632Z,10.70
2022-12-26T09:44:20.875Z,10.93
2022-12-26T09:46:57.021Z,7.88
2022-12-26T09:49:36.616Z,8.00
2022-12-26T09:52:10.826Z,6.82
2022-12-26T09:54:42.963Z,10.05
2022-12-26T09:57:18.563Z,11.85
2022-12-26T09:59:58.021Z,9.68
2022-12-26T10:02:26.477Z,10.00
2022-12-26T10:04:54.976Z,10.82
2022-12-26T10:07:42.657Z,8.90
2022-12-26T10:10:15.226Z,10.25
2022-12-26T10:12:52.958Z,10.50
2022-12-26T10:15:34.698Z,8.50
2022-12-26T10:18:09.120Z,8.15
2022-12-26T10:20:53.002Z,15.02
2022-12-26T10:23:42.386Z,14.38
2022-12-26T10:26:16.037Z,20.70
2022-12-26T10:28:59.474Z,30.25
2022-12-26T10:31:49.006Z,15.98
2022-12-26T10:34:25.818Z,13.40
2022-12-26T10:37:18.238Z,24.30
2022-12-26T10:39:51.121Z,10.93
2022-12-26T10:42:36.790Z,8.77
2022-12-26T10:45:17.271Z,10.40
2022-12-26T10:47:49.886Z,8.00
2022-12-26T10:50:27.856Z,12.23
2022-12-26T10:52:57.346Z,13.30
2022-12-26T10:55:35.024Z,8.25
2022-12-26T10:58:21.029Z,9.30
2022-12-26T11:00:52.062Z,20.67
2022-12-26T11:03:20.778Z,23.92
2022-12-26T11:06:09.851Z,14.07
2022-12-26T11:08:47.788Z,10.80
2022-12-26T11:11:23.780Z,9.75
2022-12-26T11:14:01.660Z,9.32
2022-12-26T11:16:31.624Z,10.48
2022-12-26T11:18:59.007Z,9.50
2022-12-26T11:21:28.738Z,11.98
2022-12-26T11:24:22.642Z,10.32
2022-12-26T11:26:49.590Z,25.65
2022-12-26T11:29:21.916Z,14.57
2022-12-26T11:31:59.376Z,12.25
2022-12-26T11:34:39.598Z,11.80
2022-12-26T11:37:07.665Z,12.68
2022-12-26T11:39:37.893Z,11.07
2022-12-26T11:42:12.752Z,11.55
2022-12-26T11:44:45.724Z,10.98
2022-12-26T11:47:15.428Z,10.35
2022-12-26T11:50:02.807Z,11.52
2022-12-26T11:52:51.952Z,13.82
2022-12-26T11:55:24.932Z,10.77
2022-12-26T11:58:06.934Z,9.40
2022-12-26T12:00:41.424Z,10.63
2022-12-26T12:03:17.704Z,7.88
2022-12-26T12:06:22.350Z,8.68
2022-12-26T12:09:03.865Z,19.10
2022-12-26T12:11:54.463Z,31.80
2022-12-26T12:14:48.066Z,28.40
2022-12-26T12:17:38.901Z,13.32
2022-12-26T12:20:25.276Z,13.25
2022-12-26T12:23:19.179Z,21.42
2022-12-26T12:26:04.707Z,14.52
2022-12-26T12:29:02.496Z,17.30
2022-12-26T12:32:15.759Z,10.23
2022-12-26T12:34:57.662Z,7.95
2022-12-26T12:37:49.576Z,12.50
2022-12-26T12:40:48.923Z,11.40
2022-12-26T12:43:27.966Z,17.45
2022-12-26T12:46:03.916Z,15.50
2022-12-26T12:48:39.472Z,19.42
2022-12-26T12:51:27.866Z,11.57
2022-12-26T12:54:03.980Z,10.88
2022-12-26T12:56:53.761Z,13.63
2022-12-26T12:59:38.844Z,13.10
2022-12-26T13:02:20.510Z,10.80
2022-12-26T13:04:55.830Z,11.82
2022-12-26T13:07:33.092Z,13.05
2022-12-26T13:10:04.341Z,11.32
2022-12-26T13:12:37.013Z,12.88
2022-12-26T13:15:30.732Z,14.10
2022-12-26T13:18:11.756Z,14.05
2022-12-26T13:20:44.605Z,11.98
2022-12-26T13:23:48.753Z,13.25
2022-12-26T13:26:25.475Z,10.20
2022-12-26T13:29:02.805Z,9.30
2022-12-26T13:31:36.650Z,11.77
2022-12-26T13:34:07.739Z,9.30
2022-12-26T13:36:53.247Z,8.82
2022-12-26T13:39:45.307Z,10.93
2022-12-26T13:42:30.627Z,10.13
2022-12-26T13:45:37.987Z,10.38
2022-12-26T13:48:16.148Z,7.80
2022-12-26T13:50:59.492Z,15.77
2022-12-26T13:53:26.558Z,10.50
2022-12-26T13:56:00.881Z,13.25
2022-12-26T13:58:42.811Z,10.02
2022-12-26T14:01:43.765Z,12.10
2022-12-26T14:04:37.783Z,7.57
2022-12-26T14:07:46.403Z,7.30
2022-12-26T14:10:43.609Z,11.95
2022-12-26T14:13:56.060Z,14.25
2022-12-26T14:16:47.631Z,15.05
2022-12-26T14:19:51.649Z,16.05
2022-12-26T14:22:42.532Z,13.75
2022-12-26T14:25:10.427Z,7.47
2022-12-26T14:27:57.637Z,12.27
2022-12-26T14:30:49.412Z,12.70
2022-12-26T14:33:37.517Z,12.02
2022-12-26T14:36:33.572Z,18.38
2022-12-26T14:39:17.448Z,13.80
2022-12-26T14:42:24.572Z,10.27
2022-12-26T14:44:57.242Z,9.40
2022-12-26T14:47:45.959Z,12.30
2022-12-26T14:50:40.721Z,11.00
2022-12-26T14:53:29.920Z,14.82
2022-12-26T14:55:58.465Z,15.15
2022-12-26T14:58:31.415Z,16.13
2022-12-26T15:01:13.463Z,12.23
2022-12-26T15:04:18.190Z,17.35
2022-12-26T15:07:20.355Z,10.90
2022-12-26T15:09:53.566Z,10.65
2022-12-26T15:12:38.400Z,10.10
2022-12-26T15:15:23.518Z,10.50
2022-12-26T15:18:08.325Z,9.73
2022-12-26T15:20:53.799Z,16.23
2022-12-26T15:23:26.452Z,14.57
2022-12-26T15:26:14.429Z,13.98
2022-12-26T15:29:14.633Z,9.38
2022-12-26T15:32:03.847Z,11.75
2022-12-26T15:35:08.143Z,20.45
2022-12-26T15:37:45.137Z,15.68
2022-12-26T15:40:22.518Z,21.77
2022-12-26T15:43:10.386Z,13.20
2022-12-26T15:45:53.409Z,14.10
2022-12-26T15:48:51.263Z,23.40
2022-12-26T15:51:30.115Z,24.13
2022-12-26T15:53:56.952Z,17.60
2022-12-26T15:57:01.074Z,18.45
2022-12-26T15:59:55.730Z,14.00
2022-12-26T16:02:25.470Z,15.60
2022-12-26T16:04:58.666Z,13.65
2022-12-26T16:07:53.533Z,13.90
2022-12-26T16:10:26.093Z,16.00
2022-12-26T16:13:23.403Z,13.70
2022-12-26T16:15:52.299Z,9.55
2022-12-26T16:18:27.105Z,11.63
2022-12-26T16:21:16.225Z,13.90
2022-12-26T16:23:45.853Z,15.00
2022-12-26T16:26:29.243Z,15.40
2022-12-26T16:29:00.802Z,11.13
2022-12-26T16:31:31.274Z,12.23
2022-12-26T16:34:00.192Z,12.88
2022-12-26T16:36:32.370Z,13.52
2022-12-26T16:38:59.277Z,15.23
2022-12-26T16:41:32.107Z,18.83
2022-12-26T16:44:30.419Z,15.88
2022-12-26T16:47:02.302Z,17.20
2022-12-26T16:49:31.782Z,18.77
2022-12-26T16:51:59.471Z,25.70
2022-12-26T16:54:38.766Z,25.92
2022-12-26T16:57:05.625Z,23.52
2022-12-26T16:59:41.321Z,16.50
2022-12-26T17:02:17.259Z,17.02
2022-12-26T17:04:58.241Z,17.13
2022-12-26T17:07:35.048Z,16.95
2022-12-26T17:10:02.388Z,15.70
2022-12-26T17:12:35.421Z,14.95
2022-12-26T17:15:03.822Z,16.58
2022-12-26T17:17:36.395Z,17.15
2022-12-26T17:20:22.044Z,18.17
2022-12-26T17:22:58.769Z,11.50
2022-12-26T17:25:29.603Z,10.32
2022-12-26T17:28:08.430Z,8.52
2022-12-26T17:30:40.042Z,5.90
2022-12-26T17:33:17.595Z,7.95
2022-12-26T17:36:44.843Z,8.05
2022-12-26T17:38:36.583Z,7.15
2022-12-26T17:41:05.887Z,6.47
2022-12-26T17:43:35.485Z,9.23
2022-12-26T17:46:04.634Z,7.78
2022-12-26T17:48:32.064Z,7.28
2022-12-26T17:51:05.941Z,9.15
2022-12-26T17:53:47.516Z,12.30
2022-12-26T17:56:18.045Z,13.15
2022-12-26T17:58:45.199Z,17.27
2022-12-26T18:01:17.434Z,18.05
2022-12-26T18:03:47.650Z,18.17
2022-12-26T18:06:17.242Z,16.75
2022-12-26T18:08:45.139Z,14.57
2022-12-26T18:11:13.951Z,13.23
2022-12-26T18:13:47.420Z,15.10
2022-12-26T18:16:19.914Z,14.32
2022-12-26T18:18:48.384Z,12.23
2022-12-26T18:21:16.697Z,12.05
2022-12-26T18:23:47.076Z,15.02
2022-12-26T18:26:26.700Z,16.50
2022-12-26T18:28:55.367Z,16.85
2022-12-26T18:31:22.294Z,18.65
2022-12-26T18:33:50.111Z,20.27
2022-12-26T18:36:17.801Z,25.65
2022-12-26T18:38:45.133Z,20.30
2022-12-26T18:41:17.404Z,17.13
2022-12-26T18:43:47.177Z,19.95
2022-12-26T18:46:25.286Z,20.35
2022-12-26T18:48:59.693Z,15.23
2022-12-26T18:51:27.991Z,13.45
2022-12-26T18:53:55.185Z,11.13
2022-12-26T18:56:23.014Z,13.82
2022-12-26T18:58:58.189Z,9.45
2022-12-26T19:01:31.440Z,10.35
2022-12-26T19:03:58.672Z,13.13
2022-12-26T19:06:30.117Z,14.02
2022-12-26T19:08:58.651Z,11.10
2022-12-26T19:11:25.581Z,16.85
2022-12-26T19:13:52.765Z,24.50
2022-12-26T19:16:19.947Z,16.88
2022-12-26T19:18:47.028Z,15.15
2022-12-26T19:21:15.126Z,11.95
2022-12-26T19:23:46.504Z,18.65
2022-12-26T19:26:16.735Z,15.63
2022-12-26T19:28:43.963Z,9.63
2022-12-26T19:31:15.346Z,9.13
2022-12-26T19:33:42.826Z,10.13
2022-12-26T19:36:10.158Z,8.70
2022-12-26T19:38:37.384Z,11.23
2022-12-26T19:41:06.481Z,9.90
2022-12-26T19:43:33.588Z,6.90
2022-12-26T19:46:09.244Z,9.90
2022-12-26T19:48:37.487Z,11.13
2022-12-26T19:51:07.738Z,10.60
2022-12-26T19:53:36.440Z,9.82
2022-12-26T19:56:11.306Z,12.82
2022-12-26T19:58:39.311Z,30.65
2022-12-26T20:01:13.939Z,16.45
2022-12-26T20:03:42.311Z,14.52
2022-12-26T20:06:20.811Z,14.05
2022-12-26T20:08:50.309Z,12.52
2022-12-26T20:11:22.426Z,10.95
2022-12-26T20:13:50.550Z,13.23
2022-12-26T20:16:54.690Z,11.27
2022-12-26T20:19:07.781Z,11.98
2022-12-26T20:21:35.164Z,9.50
2022-12-26T20:24:02.416Z,7.72
2022-12-26T20:26:30.164Z,11.00
2022-12-26T20:29:01.380Z,11.70
2022-12-26T20:31:30.313Z,11.52
2022-12-26T20:33:57.835Z,14.15
2022-12-26T20:36:30.908Z,16.63
2022-12-26T20:39:00.975Z,13.98
2022-12-26T20:41:32.538Z,13.35
2022-12-26T20:44:03.025Z,12.13
2022-12-26T20:46:34.392Z,16.90
2022-12-26T20:49:04.929Z,9.93
2022-12-26T20:51:37.441Z,14.95
2022-12-26T20:54:06.857Z,10.20
2022-12-26T20:56:34.692Z,8.32
2022-12-26T20:59:03.427Z,7.03
2022-12-26T21:01:30.960Z,8.98
2022-12-26T21:03:58.917Z,11.05
2022-12-26T21:09:20.938Z,18.63
2022-12-26T21:11:48.650Z,11.32
2022-12-26T21:14:19.583Z,9.43
2022-12-26T21:16:50.625Z,9.20
2022-12-26T21:19:22.935Z,7.72
2022-12-26T21:21:52.993Z,11.07
2022-12-26T21:24:26.620Z,13.00
2022-12-26T21:26:54.546Z,12.30
2022-12-26T21:29:30.281Z,16.58
2022-12-26T21:31:59.219Z,10.38
2022-12-26T21:34:28.294Z,9.77
2022-12-26T21:37:14.976Z,11.05
2022-12-26T21:39:44.197Z,11.15
2022-12-26T21:42:11.454Z,7.38
2022-12-26T21:44:39.181Z,9.75
2022-12-26T21:47:08.117Z,9.05
2022-12-26T21:49:36.286Z,6.95
2022-12-26T21:52:05.126Z,12.73
2022-12-26T21:54:51.359Z,10.35
2022-12-26T21:57:18.823Z,6.85
2022-12-26T21:59:59.320Z,6.78
2022-12-26T22:03:11.892Z,7.40
2022-12-26T22:05:42.020Z,7.70
2022-12-26T22:08:12.126Z,9.50
2022-12-26T22:11:01.339Z,11.13
2022-12-26T22:13:28.806Z,6.32
2022-12-26T22:16:07.908Z,7.60
2022-12-26T22:18:58.460Z,7.95
2022-12-26T22:21:26.348Z,6.82
2022-12-26T22:23:54.371Z,7.32
2022-12-26T22:26:23.616Z,7.75
2022-12-26T22:28:51.148Z,9.90
2022-12-26T22:31:24.237Z,9.40
2022-12-26T22:33:56.819Z,7.88
2022-12-26T22:36:25.188Z,10.35
2022-12-26T22:38:52.248Z,8.10
2022-12-26T22:41:19.183Z,7.72
2022-12-26T22:43:46.375Z,8.45
2022-12-26T22:46:14.088Z,9.23
2022-12-26T22:48:41.833Z,7.43
2022-12-26T22:51:09.376Z,7.95
2022-12-26T22:53:36.250Z,9.90
2022-12-26T22:56:06.461Z,7.75
2022-12-26T22:58:34.265Z,15.90
2022-12-26T23:01:01.461Z,6.35
2022-12-26T23:03:28.572Z,22.55
2022-12-26T23:05:57.933Z,8.73
2022-12-26T23:08:27.737Z,12.00
2022-12-26T23:11:01.477Z,9.48
2022-12-26T23:13:28.821Z,14.60
2022-12-26T23:15:58.241Z,10.75
2022-12-26T23:18:52.745Z,11.30
2022-12-26T23:21:38.860Z,8.57
2022-12-26T23:24:17.766Z,11.00
2022-12-26T23:26:48.836Z,9.98
2022-12-26T23:29:36.357Z,8.98
2022-12-26T23:32:04.610Z,11.20
2022-12-26T23:34:31.420Z,13.48
2022-12-26T23:36:58.325Z,25.83
2022-12-26T23:39:25.684Z,15.63
2022-12-26T23:41:52.750Z,10.07
2022-12-26T23:44:22.845Z,7.38
2022-12-26T23:46:52.833Z,10.80
2022-12-26T23:49:19.876Z,9.95
2022-12-26T23:51:46.758Z,9.35
2022-12-26T23:54:13.920Z,7.03
2022-12-26T23:56:43.230Z,4.72
2022-12-26T23:59:10.083Z,6.00
